15 de agosto de 2022

Hora Código Clima Temp. Visibilidade Tecto Vento METAR/SPECI
17:30
V
28 °C 10 km+ - 190° 190° 11 kt METAR LESU 151530Z 19011KT 170V230 9999 SCT070 28/11 Q1010
17:00
V
27 °C 10 km+ - 200° 200° 11 kt METAR LESU 151500Z 20011KT 9999 SCT070 27/12 Q1010
16:30
V
28 °C 10 km+ - 200° 200° 11 kt METAR LESU 151430Z 20011KT 170V250 9999 SCT070 28/13 Q1010
16:00
V
28 °C 10 km+ - 210° 210° 13 kt METAR LESU 151400Z 21013KT 170V310 9999 SCT070 28/14 Q1010
15:30
V
26 °C 10 km+ - 200° 200° 15 kt METAR LESU 151330Z 20015KT 9999 SCT070 26/13 Q1010
15:00
V
28 °C 10 km+ - 210° 210° 12 kt METAR LESU 151300Z 21012KT 180V260 9999 SCT070 28/13 Q1010
14:30
V
28 °C 10 km+ - 200° 200° 11 kt METAR LESU 151230Z 20011KT 9999 SCT070 28/13 Q1010
14:00
V
28 °C 10 km+ - 190° 190° 10 - 20 kt METAR LESU 151200Z 19010G20KT 160V220 9999 SCT070 28/12 Q1010
13:30
V
27 °C 10 km+ - 200° 200° 9 kt METAR LESU 151130Z 20009KT 160V240 9999 SCT060 27/13 Q1011
13:00
V
27 °C 10 km+ - 210° 210° 7 kt METAR LESU 151100Z 21007KT 150V260 9999 SCT060 27/14 Q1011
12:30
V
26 °C 10 km+ - 210° 210° 8 kt METAR LESU 151030Z 21008KT 9999 SCT060 26/14 Q1011
12:00
V
25 °C 10 km+ - 180° 180° 4 kt METAR LESU 151000Z 18004KT 130V240 9999 SCT060 25/14 Q1011
11:30
V
24 °C 10 km+ - Var Var 3 kt METAR LESU 150930Z VRB03KT 9999 SCT060 24/15 Q1012
11:00
V
23 °C 10 km+ - Var Var 2 kt METAR LESU 150900Z VRB02KT 9999 FEW060 23/14 Q1012
10:30
V
22 °C 10 km+ - Var Var 1 kt METAR LESU 150830Z VRB01KT 9999 FEW060 22/13 Q1012
10:00
V
20 °C 10 km+ - 070° 070° 3 kt METAR LESU 150800Z 07003KT 020V110 9999 FEW060 20/13 Q1012

14 de agosto de 2022

Hora Código Clima Temp. Visibilidade Tecto Vento METAR/SPECI
17:30
V
31 °C 10 km+ - 230° 230° 9 - 19 kt METAR LESU 141530Z 23009G19KT 190V300 9999 FEW090 31/01 Q1010
17:00
V
31 °C 10 km+ - 240° 240° 8 kt METAR LESU 141500Z 24008KT 180V300 9999 FEW090 31/01 Q1010
16:30
V
31 °C 10 km+ - 210° 210° 10 kt METAR LESU 141430Z 21010KT 190V250 9999 FEW090 31/02 Q1010
16:00
V
31 °C 10 km+ - 190° 190° 12 kt METAR LESU 141400Z 19012KT 160V230 9999 FEW090 31/04 Q1010
Dados mais antigos

Nós e terceiros acompanhamos seu comportamento na internet em nosso site com cookies. Se você continuar, nós assumimos que você concorda com nossa política de cookies. Saiba mais